sensor_id;sensor_type;location;lat;lon;timestamp;P1;durP1;ratioP1;P2;durP2;ratioP2
57309;SDS011;43153;50.984;18.204;2023-11-21T00:01:27;17.60;;;8.20;;
57309;SDS011;43153;50.984;18.204;2023-11-21T00:03:53;19.40;;;9.20;;
57309;SDS011;43153;50.984;18.204;2023-11-21T00:06:21;19.90;;;8.10;;
57309;SDS011;43153;50.984;18.204;2023-11-21T00:08:48;20.50;;;8.00;;
57309;SDS011;43153;50.984;18.204;2023-11-21T00:11:14;15.70;;;7.80;;
57309;SDS011;43153;50.984;18.204;2023-11-21T00:13:39;19.40;;;8.50;;
57309;SDS011;43153;50.984;18.204;2023-11-21T00:16:05;18.00;;;7.90;;
57309;SDS011;43153;50.984;18.204;2023-11-21T00:18:34;15.30;;;8.00;;
57309;SDS011;43153;50.984;18.204;2023-11-21T00:21:01;15.40;;;8.00;;
57309;SDS011;43153;50.984;18.204;2023-11-21T00:23:32;18.00;;;8.50;;
57309;SDS011;43153;50.984;18.204;2023-11-21T00:25:58;28.40;;;9.40;;
57309;SDS011;43153;50.984;18.204;2023-11-21T00:28:24;13.60;;;6.90;;
57309;SDS011;43153;50.984;18.204;2023-11-21T00:30:51;16.40;;;8.60;;
57309;SDS011;43153;50.984;18.204;2023-11-21T00:33:19;17.10;;;8.00;;
57309;SDS011;43153;50.984;18.204;2023-11-21T00:35:46;19.60;;;8.40;;
57309;SDS011;43153;50.984;18.204;2023-11-21T00:38:12;18.20;;;8.60;;
57309;SDS011;43153;50.984;18.204;2023-11-21T00:40:43;13.70;;;6.70;;
57309;SDS011;43153;50.984;18.204;2023-11-21T00:43:09;13.70;;;6.60;;
57309;SDS011;43153;50.984;18.204;2023-11-21T00:45:38;17.30;;;5.70;;
57309;SDS011;43153;50.984;18.204;2023-11-21T00:48:05;12.80;;;6.20;;
57309;SDS011;43153;50.984;18.204;2023-11-21T00:50:36;13.90;;;7.10;;
57309;SDS011;43153;50.984;18.204;2023-11-21T00:53:04;12.30;;;6.50;;
57309;SDS011;43153;50.984;18.204;2023-11-21T00:55:33;11.60;;;6.20;;
57309;SDS011;43153;50.984;18.204;2023-11-21T00:58:01;22.00;;;7.20;;
57309;SDS011;43153;50.984;18.204;2023-11-21T01:00:29;16.70;;;7.10;;
57309;SDS011;43153;50.984;18.204;2023-11-21T01:02:55;16.00;;;6.50;;
57309;SDS011;43153;50.984;18.204;2023-11-21T01:05:21;15.00;;;7.40;;
57309;SDS011;43153;50.984;18.204;2023-11-21T01:07:50;15.20;;;7.50;;
57309;SDS011;43153;50.984;18.204;2023-11-21T01:10:17;13.00;;;6.30;;
57309;SDS011;43153;50.984;18.204;2023-11-21T01:12:43;14.20;;;7.40;;
57309;SDS011;43153;50.984;18.204;2023-11-21T01:15:09;16.60;;;8.10;;
57309;SDS011;43153;50.984;18.204;2023-11-21T01:17:38;16.30;;;7.00;;
57309;SDS011;43153;50.984;18.204;2023-11-21T01:20:07;12.80;;;6.90;;
57309;SDS011;43153;50.984;18.204;2023-11-21T01:22:37;17.00;;;7.90;;
57309;SDS011;43153;50.984;18.204;2023-11-21T01:25:05;15.30;;;7.50;;
57309;SDS011;43153;50.984;18.204;2023-11-21T01:27:33;18.20;;;9.00;;
57309;SDS011;43153;50.984;18.204;2023-11-21T01:30:00;15.20;;;8.00;;
57309;SDS011;43153;50.984;18.204;2023-11-21T01:32:27;16.10;;;8.10;;
57309;SDS011;43153;50.984;18.204;2023-11-21T01:34:56;12.40;;;6.40;;
57309;SDS011;43153;50.984;18.204;2023-11-21T01:37:22;12.90;;;5.60;;
57309;SDS011;43153;50.984;18.204;2023-11-21T01:39:48;16.60;;;5.50;;
57309;SDS011;43153;50.984;18.204;2023-11-21T01:42:16;11.80;;;5.10;;
57309;SDS011;43153;50.984;18.204;2023-11-21T01:44:47;11.10;;;4.60;;
57309;SDS011;43153;50.984;18.204;2023-11-21T01:47:13;13.00;;;5.00;;
57309;SDS011;43153;50.984;18.204;2023-11-21T01:49:48;9.80;;;4.10;;
57309;SDS011;43153;50.984;18.204;2023-11-21T01:52:14;11.50;;;4.40;;
57309;SDS011;43153;50.984;18.204;2023-11-21T01:54:41;13.40;;;4.00;;
57309;SDS011;43153;50.984;18.204;2023-11-21T01:57:08;10.00;;;3.90;;
57309;SDS011;43153;50.984;18.204;2023-11-21T01:59:41;10.00;;;3.70;;
57309;SDS011;43153;50.984;18.204;2023-11-21T02:02:11;7.60;;;3.30;;
57309;SDS011;43153;50.984;18.204;2023-11-21T02:04:42;10.20;;;4.50;;
57309;SDS011;43153;50.984;18.204;2023-11-21T02:07:10;10.50;;;4.80;;
57309;SDS011;43153;50.984;18.204;2023-11-21T02:09:38;15.20;;;5.40;;
57309;SDS011;43153;50.984;18.204;2023-11-21T02:12:07;11.40;;;4.20;;
57309;SDS011;43153;50.984;18.204;2023-11-21T02:14:38;9.50;;;4.40;;
57309;SDS011;43153;50.984;18.204;2023-11-21T02:17:07;8.30;;;3.00;;
57309;SDS011;43153;50.984;18.204;2023-11-21T02:19:33;11.70;;;4.30;;
57309;SDS011;43153;50.984;18.204;2023-11-21T02:21:59;12.30;;;4.90;;
57309;SDS011;43153;50.984;18.204;2023-11-21T02:24:31;9.80;;;4.40;;
57309;SDS011;43153;50.984;18.204;2023-11-21T02:26:59;7.90;;;3.30;;
57309;SDS011;43153;50.984;18.204;2023-11-21T02:29:29;8.40;;;2.80;;
57309;SDS011;43153;50.984;18.204;2023-11-21T02:31:55;9.90;;;2.90;;
57309;SDS011;43153;50.984;18.204;2023-11-21T02:34:22;9.70;;;3.30;;
57309;SDS011;43153;50.984;18.204;2023-11-21T02:36:51;7.80;;;3.00;;
57309;SDS011;43153;50.984;18.204;2023-11-21T02:39:19;8.20;;;3.10;;
57309;SDS011;43153;50.984;18.204;2023-11-21T02:41:49;9.50;;;3.70;;
57309;SDS011;43153;50.984;18.204;2023-11-21T02:44:18;9.00;;;3.30;;
57309;SDS011;43153;50.984;18.204;2023-11-21T02:46:44;10.50;;;3.80;;
57309;SDS011;43153;50.984;18.204;2023-11-21T02:49:11;15.80;;;4.80;;
57309;SDS011;43153;50.984;18.204;2023-11-21T02:51:43;11.70;;;4.00;;
57309;SDS011;43153;50.984;18.204;2023-11-21T02:54:10;10.70;;;3.90;;
57309;SDS011;43153;50.984;18.204;2023-11-21T02:56:37;11.10;;;4.10;;
57309;SDS011;43153;50.984;18.204;2023-11-21T02:59:05;11.10;;;4.10;;
57309;SDS011;43153;50.984;18.204;2023-11-21T03:01:31;10.60;;;4.60;;
57309;SDS011;43153;50.984;18.204;2023-11-21T03:04:00;14.90;;;6.00;;
57309;SDS011;43153;50.984;18.204;2023-11-21T03:06:27;15.90;;;7.40;;
57309;SDS011;43153;50.984;18.204;2023-11-21T03:08:53;16.70;;;7.30;;
57309;SDS011;43153;50.984;18.204;2023-11-21T03:11:20;15.50;;;7.60;;
57309;SDS011;43153;50.984;18.204;2023-11-21T03:13:47;15.40;;;7.40;;
57309;SDS011;43153;50.984;18.204;2023-11-21T03:16:16;22.20;;;6.90;;
57309;SDS011;43153;50.984;18.204;2023-11-21T03:18:42;12.60;;;6.10;;
57309;SDS011;43153;50.984;18.204;2023-11-21T03:21:08;14.90;;;6.00;;
57309;SDS011;43153;50.984;18.204;2023-11-21T03:23:38;10.40;;;4.60;;
57309;SDS011;43153;50.984;18.204;2023-11-21T03:26:05;14.30;;;5.90;;
57309;SDS011;43153;50.984;18.204;2023-11-21T03:28:38;12.80;;;5.10;;
57309;SDS011;43153;50.984;18.204;2023-11-21T03:31:04;13.70;;;4.90;;
57309;SDS011;43153;50.984;18.204;2023-11-21T03:33:32;12.40;;;4.90;;
57309;SDS011;43153;50.984;18.204;2023-11-21T03:36:00;12.30;;;4.40;;
57309;SDS011;43153;50.984;18.204;2023-11-21T03:38:27;10.70;;;4.90;;
57309;SDS011;43153;50.984;18.204;2023-11-21T03:40:53;13.10;;;6.30;;
57309;SDS011;43153;50.984;18.204;2023-11-21T03:43:19;15.40;;;7.00;;
57309;SDS011;43153;50.984;18.204;2023-11-21T03:45:47;14.00;;;6.30;;
57309;SDS011;43153;50.984;18.204;2023-11-21T03:48:14;13.10;;;6.00;;
57309;SDS011;43153;50.984;18.204;2023-11-21T03:50:41;14.80;;;6.00;;
57309;SDS011;43153;50.984;18.204;2023-11-21T03:53:08;15.00;;;6.20;;
57309;SDS011;43153;50.984;18.204;2023-11-21T03:55:35;14.10;;;6.10;;
57309;SDS011;43153;50.984;18.204;2023-11-21T03:58:02;15.60;;;5.40;;
57309;SDS011;43153;50.984;18.204;2023-11-21T04:00:28;12.90;;;5.60;;
57309;SDS011;43153;50.984;18.204;2023-11-21T04:02:54;13.40;;;5.30;;
57309;SDS011;43153;50.984;18.204;2023-11-21T04:05:23;16.60;;;6.50;;
57309;SDS011;43153;50.984;18.204;2023-11-21T04:07:49;14.60;;;5.10;;
57309;SDS011;43153;50.984;18.204;2023-11-21T04:10:16;14.00;;;5.40;;
57309;SDS011;43153;50.984;18.204;2023-11-21T04:12:44;23.30;;;6.00;;
57309;SDS011;43153;50.984;18.204;2023-11-21T04:15:11;14.40;;;5.20;;
57309;SDS011;43153;50.984;18.204;2023-11-21T04:17:39;17.40;;;8.00;;
57309;SDS011;43153;50.984;18.204;2023-11-21T04:20:07;15.50;;;6.60;;
57309;SDS011;43153;50.984;18.204;2023-11-21T04:22:39;17.00;;;6.20;;
57309;SDS011;43153;50.984;18.204;2023-11-21T04:25:24;19.70;;;7.70;;
57309;SDS011;43153;50.984;18.204;2023-11-21T04:27:52;18.20;;;7.10;;
57309;SDS011;43153;50.984;18.204;2023-11-21T04:30:18;14.00;;;6.10;;
57309;SDS011;43153;50.984;18.204;2023-11-21T04:32:46;14.10;;;6.50;;
57309;SDS011;43153;50.984;18.204;2023-11-21T04:35:14;16.70;;;7.80;;
57309;SDS011;43153;50.984;18.204;2023-11-21T04:37:42;15.60;;;5.80;;
57309;SDS011;43153;50.984;18.204;2023-11-21T04:40:08;20.90;;;5.90;;
57309;SDS011;43153;50.984;18.204;2023-11-21T04:42:35;14.50;;;5.60;;
57309;SDS011;43153;50.984;18.204;2023-11-21T04:45:05;19.20;;;6.90;;
57309;SDS011;43153;50.984;18.204;2023-11-21T04:47:36;13.20;;;5.80;;
57309;SDS011;43153;50.984;18.204;2023-11-21T04:50:03;11.80;;;4.40;;
57309;SDS011;43153;50.984;18.204;2023-11-21T04:52:30;13.30;;;5.70;;
57309;SDS011;43153;50.984;18.204;2023-11-21T04:54:56;17.30;;;5.90;;
57309;SDS011;43153;50.984;18.204;2023-11-21T04:57:24;12.60;;;5.30;;
57309;SDS011;43153;50.984;18.204;2023-11-21T04:59:51;20.00;;;5.80;;
57309;SDS011;43153;50.984;18.204;2023-11-21T05:02:21;14.30;;;5.90;;
57309;SDS011;43153;50.984;18.204;2023-11-21T05:04:49;13.90;;;5.30;;
57309;SDS011;43153;50.984;18.204;2023-11-21T05:07:19;11.10;;;4.90;;
57309;SDS011;43153;50.984;18.204;2023-11-21T05:09:45;13.20;;;5.30;;
57309;SDS011;43153;50.984;18.204;2023-11-21T05:12:11;12.70;;;5.20;;
57309;SDS011;43153;50.984;18.204;2023-11-21T05:14:38;16.70;;;6.00;;
57309;SDS011;43153;50.984;18.204;2023-11-21T05:17:07;12.80;;;4.90;;
57309;SDS011;43153;50.984;18.204;2023-11-21T05:19:37;13.70;;;5.30;;
57309;SDS011;43153;50.984;18.204;2023-11-21T05:22:05;13.80;;;6.20;;
57309;SDS011;43153;50.984;18.204;2023-11-21T05:24:34;16.20;;;6.60;;
57309;SDS011;43153;50.984;18.204;2023-11-21T05:27:01;15.90;;;5.80;;
57309;SDS011;43153;50.984;18.204;2023-11-21T05:29:27;19.90;;;8.30;;
57309;SDS011;43153;50.984;18.204;2023-11-21T05:31:54;10.50;;;5.00;;
57309;SDS011;43153;50.984;18.204;2023-11-21T05:34:23;15.90;;;6.30;;
57309;SDS011;43153;50.984;18.204;2023-11-21T05:36:51;14.80;;;4.60;;
57309;SDS011;43153;50.984;18.204;2023-11-21T05:39:17;11.70;;;4.80;;
57309;SDS011;43153;50.984;18.204;2023-11-21T05:41:44;11.10;;;4.20;;
57309;SDS011;43153;50.984;18.204;2023-11-21T05:44:12;12.60;;;4.70;;
57309;SDS011;43153;50.984;18.204;2023-11-21T05:46:41;15.30;;;4.40;;
57309;SDS011;43153;50.984;18.204;2023-11-21T05:49:08;16.80;;;9.10;;
57309;SDS011;43153;50.984;18.204;2023-11-21T05:51:36;19.80;;;9.90;;
57309;SDS011;43153;50.984;18.204;2023-11-21T05:54:03;39.20;;;18.80;;
57309;SDS011;43153;50.984;18.204;2023-11-21T05:56:30;37.10;;;19.40;;
57309;SDS011;43153;50.984;18.204;2023-11-21T05:58:56;34.40;;;18.40;;
57309;SDS011;43153;50.984;18.204;2023-11-21T06:01:21;35.20;;;16.10;;
57309;SDS011;43153;50.984;18.204;2023-11-21T06:03:47;33.20;;;15.10;;
57309;SDS011;43153;50.984;18.204;2023-11-21T06:06:14;31.90;;;16.20;;
57309;SDS011;43153;50.984;18.204;2023-11-21T06:08:40;39.60;;;18.40;;
57309;SDS011;43153;50.984;18.204;2023-11-21T06:11:09;27.10;;;16.30;;
57309;SDS011;43153;50.984;18.204;2023-11-21T06:13:38;30.40;;;16.00;;
57309;SDS011;43153;50.984;18.204;2023-11-21T06:16:06;24.20;;;12.20;;
57309;SDS011;43153;50.984;18.204;2023-11-21T06:18:33;23.40;;;10.60;;
57309;SDS011;43153;50.984;18.204;2023-11-21T06:21:00;18.80;;;9.00;;
57309;SDS011;43153;50.984;18.204;2023-11-21T06:23:29;22.10;;;10.00;;
57309;SDS011;43153;50.984;18.204;2023-11-21T06:25:55;32.20;;;11.90;;
57309;SDS011;43153;50.984;18.204;2023-11-21T06:28:21;35.00;;;16.30;;
57309;SDS011;43153;50.984;18.204;2023-11-21T06:30:47;31.40;;;15.50;;
57309;SDS011;43153;50.984;18.204;2023-11-21T06:33:20;27.60;;;13.80;;
57309;SDS011;43153;50.984;18.204;2023-11-21T06:35:47;35.50;;;16.90;;
57309;SDS011;43153;50.984;18.204;2023-11-21T06:38:15;34.40;;;19.70;;
57309;SDS011;43153;50.984;18.204;2023-11-21T06:40:44;45.80;;;22.10;;
57309;SDS011;43153;50.984;18.204;2023-11-21T06:43:10;43.90;;;19.90;;
57309;SDS011;43153;50.984;18.204;2023-11-21T06:45:39;39.30;;;20.50;;
57309;SDS011;43153;50.984;18.204;2023-11-21T06:48:08;36.70;;;20.50;;
57309;SDS011;43153;50.984;18.204;2023-11-21T06:50:34;41.60;;;22.40;;
57309;SDS011;43153;50.984;18.204;2023-11-21T06:53:05;39.20;;;20.50;;
57309;SDS011;43153;50.984;18.204;2023-11-21T06:55:32;28.10;;;16.40;;
57309;SDS011;43153;50.984;18.204;2023-11-21T06:58:00;21.40;;;11.00;;
57309;SDS011;43153;50.984;18.204;2023-11-21T07:00:27;18.80;;;7.60;;
57309;SDS011;43153;50.984;18.204;2023-11-21T07:02:55;15.80;;;6.30;;
57309;SDS011;43153;50.984;18.204;2023-11-21T07:05:23;21.00;;;9.40;;
57309;SDS011;43153;50.984;18.204;2023-11-21T07:07:52;25.50;;;11.50;;
57309;SDS011;43153;50.984;18.204;2023-11-21T07:10:19;24.30;;;11.50;;
57309;SDS011;43153;50.984;18.204;2023-11-21T07:12:46;25.10;;;14.40;;
57309;SDS011;43153;50.984;18.204;2023-11-21T07:15:12;28.90;;;16.70;;
57309;SDS011;43153;50.984;18.204;2023-11-21T07:17:40;34.40;;;18.40;;
57309;SDS011;43153;50.984;18.204;2023-11-21T07:20:07;41.40;;;19.10;;
57309;SDS011;43153;50.984;18.204;2023-11-21T07:22:36;27.50;;;13.60;;
57309;SDS011;43153;50.984;18.204;2023-11-21T07:25:06;28.70;;;13.40;;
57309;SDS011;43153;50.984;18.204;2023-11-21T07:27:37;27.80;;;14.50;;
57309;SDS011;43153;50.984;18.204;2023-11-21T07:30:03;23.70;;;11.40;;
57309;SDS011;43153;50.984;18.204;2023-11-21T07:32:31;25.60;;;12.30;;
57309;SDS011;43153;50.984;18.204;2023-11-21T07:34:57;19.80;;;9.00;;
57309;SDS011;43153;50.984;18.204;2023-11-21T07:37:24;18.10;;;10.10;;
57309;SDS011;43153;50.984;18.204;2023-11-21T07:39:56;19.20;;;8.80;;
57309;SDS011;43153;50.984;18.204;2023-11-21T07:42:25;18.30;;;7.80;;
57309;SDS011;43153;50.984;18.204;2023-11-21T07:44:53;19.10;;;7.80;;
57309;SDS011;43153;50.984;18.204;2023-11-21T07:47:19;16.70;;;6.50;;
57309;SDS011;43153;50.984;18.204;2023-11-21T07:49:48;15.60;;;6.40;;
57309;SDS011;43153;50.984;18.204;2023-11-21T07:52:14;17.10;;;6.10;;
57309;SDS011;43153;50.984;18.204;2023-11-21T07:54:41;17.20;;;6.40;;
57309;SDS011;43153;50.984;18.204;2023-11-21T07:57:07;17.00;;;8.20;;
57309;SDS011;43153;50.984;18.204;2023-11-21T07:59:33;17.00;;;7.20;;
57309;SDS011;43153;50.984;18.204;2023-11-21T08:02:00;18.20;;;6.80;;
57309;SDS011;43153;50.984;18.204;2023-11-21T08:04:26;17.20;;;6.40;;
57309;SDS011;43153;50.984;18.204;2023-11-21T08:06:52;16.70;;;6.00;;
57309;SDS011;43153;50.984;18.204;2023-11-21T08:09:18;16.80;;;6.20;;
57309;SDS011;43153;50.984;18.204;2023-11-21T08:11:45;15.50;;;6.10;;
57309;SDS011;43153;50.984;18.204;2023-11-21T08:14:14;15.40;;;6.80;;
57309;SDS011;43153;50.984;18.204;2023-11-21T08:16:41;17.20;;;6.80;;
57309;SDS011;43153;50.984;18.204;2023-11-21T08:19:08;12.60;;;5.60;;
57309;SDS011;43153;50.984;18.204;2023-11-21T08:21:34;18.20;;;5.50;;
57309;SDS011;43153;50.984;18.204;2023-11-21T08:24:03;15.60;;;5.70;;
57309;SDS011;43153;50.984;18.204;2023-11-21T08:26:29;12.90;;;6.20;;
57309;SDS011;43153;50.984;18.204;2023-11-21T08:28:56;18.20;;;8.10;;
57309;SDS011;43153;50.984;18.204;2023-11-21T08:33:54;22.60;;;6.70;;
57309;SDS011;43153;50.984;18.204;2023-11-21T08:36:22;17.30;;;7.40;;
57309;SDS011;43153;50.984;18.204;2023-11-21T08:38:50;18.90;;;7.10;;
57309;SDS011;43153;50.984;18.204;2023-11-21T08:41:20;25.00;;;8.70;;
57309;SDS011;43153;50.984;18.204;2023-11-21T08:43:52;17.90;;;6.80;;
57309;SDS011;43153;50.984;18.204;2023-11-21T08:46:20;16.60;;;8.50;;
57309;SDS011;43153;50.984;18.204;2023-11-21T08:48:46;17.50;;;8.60;;
57309;SDS011;43153;50.984;18.204;2023-11-21T08:51:11;20.10;;;9.10;;
57309;SDS011;43153;50.984;18.204;2023-11-21T08:53:39;18.10;;;9.70;;
57309;SDS011;43153;50.984;18.204;2023-11-21T08:56:05;13.70;;;7.30;;
57309;SDS011;43153;50.984;18.204;2023-11-21T08:58:33;19.10;;;7.00;;
57309;SDS011;43153;50.984;18.204;2023-11-21T09:00:59;14.90;;;7.60;;
57309;SDS011;43153;50.984;18.204;2023-11-21T09:03:29;15.70;;;7.20;;
57309;SDS011;43153;50.984;18.204;2023-11-21T09:05:59;18.90;;;7.70;;
57309;SDS011;43153;50.984;18.204;2023-11-21T09:08:25;18.00;;;8.20;;
57309;SDS011;43153;50.984;18.204;2023-11-21T09:10:58;19.40;;;9.70;;
57309;SDS011;43153;50.984;18.204;2023-11-21T09:13:24;17.10;;;7.50;;
57309;SDS011;43153;50.984;18.204;2023-11-21T09:15:51;20.30;;;9.00;;
57309;SDS011;43153;50.984;18.204;2023-11-21T09:18:17;20.20;;;9.50;;
57309;SDS011;43153;50.984;18.204;2023-11-21T09:20:44;14.80;;;7.80;;
57309;SDS011;43153;50.984;18.204;2023-11-21T09:23:10;18.50;;;8.40;;
57309;SDS011;43153;50.984;18.204;2023-11-21T09:25:36;15.90;;;7.90;;
57309;SDS011;43153;50.984;18.204;2023-11-21T09:28:05;17.30;;;8.30;;
57309;SDS011;43153;50.984;18.204;2023-11-21T09:30:34;18.10;;;8.90;;
57309;SDS011;43153;50.984;18.204;2023-11-21T09:33:01;24.00;;;11.40;;
57309;SDS011;43153;50.984;18.204;2023-11-21T09:35:32;20.10;;;10.50;;
57309;SDS011;43153;50.984;18.204;2023-11-21T09:37:59;25.10;;;11.20;;
57309;SDS011;43153;50.984;18.204;2023-11-21T09:40:28;19.90;;;9.90;;
57309;SDS011;43153;50.984;18.204;2023-11-21T10:23:50;97.10;;;40.10;;
57309;SDS011;43153;50.984;18.204;2023-11-21T10:26:20;101.00;;;39.40;;
57309;SDS011;43153;50.984;18.204;2023-11-21T10:28:59;98.10;;;36.90;;
57309;SDS011;43153;50.984;18.204;2023-11-21T10:31:32;97.90;;;37.50;;
57309;SDS011;43153;50.984;18.204;2023-11-21T10:36:43;93.60;;;37.00;;
57309;SDS011;43153;50.984;18.204;2023-11-21T10:39:09;111.40;;;39.10;;
57309;SDS011;43153;50.984;18.204;2023-11-21T10:41:46;99.30;;;37.10;;
57309;SDS011;43153;50.984;18.204;2023-11-21T10:44:14;93.20;;;38.40;;
57309;SDS011;43153;50.984;18.204;2023-11-21T10:46:55;88.70;;;36.90;;
57309;SDS011;43153;50.984;18.204;2023-11-21T10:49:23;95.70;;;39.00;;
57309;SDS011;43153;50.984;18.204;2023-11-21T10:51:53;111.10;;;40.00;;
57309;SDS011;43153;50.984;18.204;2023-11-21T10:54:21;93.70;;;36.50;;
57309;SDS011;43153;50.984;18.204;2023-11-21T10:56:48;96.00;;;34.40;;
57309;SDS011;43153;50.984;18.204;2023-11-21T10:59:18;101.50;;;37.30;;
57309;SDS011;43153;50.984;18.204;2023-11-21T11:01:46;90.90;;;35.80;;
57309;SDS011;43153;50.984;18.204;2023-11-21T11:04:15;100.10;;;34.10;;
57309;SDS011;43153;50.984;18.204;2023-11-21T11:06:44;95.00;;;36.20;;
57309;SDS011;43153;50.984;18.204;2023-11-21T11:09:17;94.80;;;36.30;;
57309;SDS011;43153;50.984;18.204;2023-11-21T11:11:44;84.20;;;32.00;;
57309;SDS011;43153;50.984;18.204;2023-11-21T11:14:15;86.40;;;35.00;;
57309;SDS011;43153;50.984;18.204;2023-11-21T11:16:44;91.00;;;31.90;;
57309;SDS011;43153;50.984;18.204;2023-11-21T11:19:14;100.10;;;35.40;;
57309;SDS011;43153;50.984;18.204;2023-11-21T11:21:46;77.10;;;31.40;;
57309;SDS011;43153;50.984;18.204;2023-11-21T11:26:45;65.00;;;28.70;;
57309;SDS011;43153;50.984;18.204;2023-11-21T11:29:18;82.00;;;31.30;;
57309;SDS011;43153;50.984;18.204;2023-11-21T11:34:45;71.30;;;28.40;;
57309;SDS011;43153;50.984;18.204;2023-11-21T11:37:21;77.10;;;31.40;;
57309;SDS011;43153;50.984;18.204;2023-11-21T11:39:48;66.40;;;26.80;;
57309;SDS011;43153;50.984;18.204;2023-11-21T11:42:16;62.20;;;28.90;;
57309;SDS011;43153;50.984;18.204;2023-11-21T11:47:15;76.10;;;29.90;;
57309;SDS011;43153;50.984;18.204;2023-11-21T11:55:06;84.90;;;31.20;;
57309;SDS011;43153;50.984;18.204;2023-11-21T11:57:41;70.80;;;29.30;;
57309;SDS011;43153;50.984;18.204;2023-11-21T12:00:09;73.80;;;29.40;;
57309;SDS011;43153;50.984;18.204;2023-11-21T12:02:46;67.20;;;26.40;;
57309;SDS011;43153;50.984;18.204;2023-11-21T12:05:13;75.10;;;28.00;;
57309;SDS011;43153;50.984;18.204;2023-11-21T12:07:44;89.80;;;32.60;;
57309;SDS011;43153;50.984;18.204;2023-11-21T12:10:17;69.70;;;27.60;;
57309;SDS011;43153;50.984;18.204;2023-11-21T12:12:47;76.10;;;28.20;;
57309;SDS011;43153;50.984;18.204;2023-11-21T12:15:15;74.30;;;29.00;;
57309;SDS011;43153;50.984;18.204;2023-11-21T12:17:42;77.00;;;30.60;;
57309;SDS011;43153;50.984;18.204;2023-11-21T12:20:15;80.20;;;29.00;;
57309;SDS011;43153;50.984;18.204;2023-11-21T12:22:44;73.50;;;28.70;;
57309;SDS011;43153;50.984;18.204;2023-11-21T12:25:23;72.50;;;28.40;;
57309;SDS011;43153;50.984;18.204;2023-11-21T12:27:50;87.50;;;29.30;;
57309;SDS011;43153;50.984;18.204;2023-11-21T12:30:18;81.10;;;27.90;;
57309;SDS011;43153;50.984;18.204;2023-11-21T12:32:51;75.50;;;27.70;;
57309;SDS011;43153;50.984;18.204;2023-11-21T12:35:19;77.00;;;28.30;;
57309;SDS011;43153;50.984;18.204;2023-11-21T12:37:46;93.70;;;30.90;;
57309;SDS011;43153;50.984;18.204;2023-11-21T12:40:14;91.40;;;30.20;;
57309;SDS011;43153;50.984;18.204;2023-11-21T12:42:41;82.00;;;27.70;;
57309;SDS011;43153;50.984;18.204;2023-11-21T12:45:19;64.70;;;27.10;;
57309;SDS011;43153;50.984;18.204;2023-11-21T12:47:56;79.90;;;26.80;;
57309;SDS011;43153;50.984;18.204;2023-11-21T12:50:25;61.40;;;25.10;;
57309;SDS011;43153;50.984;18.204;2023-11-21T12:53:01;74.10;;;26.80;;
57309;SDS011;43153;50.984;18.204;2023-11-21T12:55:45;84.60;;;28.00;;
57309;SDS011;43153;50.984;18.204;2023-11-21T12:58:15;73.30;;;26.60;;
57309;SDS011;43153;50.984;18.204;2023-11-21T13:03:11;73.30;;;26.60;;
57309;SDS011;43153;50.984;18.204;2023-11-21T13:05:42;87.70;;;27.70;;
57309;SDS011;43153;50.984;18.204;2023-11-21T13:08:11;62.90;;;25.10;;
57309;SDS011;43153;50.984;18.204;2023-11-21T13:10:39;66.30;;;27.20;;
57309;SDS011;43153;50.984;18.204;2023-11-21T13:13:07;69.90;;;25.30;;
57309;SDS011;43153;50.984;18.204;2023-11-21T13:15:34;59.60;;;25.80;;
57309;SDS011;43153;50.984;18.204;2023-11-21T13:18:07;68.20;;;26.20;;
57309;SDS011;43153;50.984;18.204;2023-11-21T13:20:37;59.70;;;25.40;;
57309;SDS011;43153;50.984;18.204;2023-11-21T13:23:07;52.80;;;22.60;;
57309;SDS011;43153;50.984;18.204;2023-11-21T13:25:33;65.50;;;22.40;;
57309;SDS011;43153;50.984;18.204;2023-11-21T13:28:00;52.50;;;23.20;;
57309;SDS011;43153;50.984;18.204;2023-11-21T13:30:28;57.00;;;20.80;;
57309;SDS011;43153;50.984;18.204;2023-11-21T13:33:02;49.70;;;21.10;;
57309;SDS011;43153;50.984;18.204;2023-11-21T13:35:38;37.00;;;16.50;;
57309;SDS011;43153;50.984;18.204;2023-11-21T13:38:09;33.10;;;13.70;;
57309;SDS011;43153;50.984;18.204;2023-11-21T13:40:38;25.90;;;13.50;;
57309;SDS011;43153;50.984;18.204;2023-11-21T13:43:12;28.10;;;14.20;;
57309;SDS011;43153;50.984;18.204;2023-11-21T13:45:42;30.20;;;14.10;;
57309;SDS011;43153;50.984;18.204;2023-11-21T13:48:10;32.30;;;14.30;;
57309;SDS011;43153;50.984;18.204;2023-11-21T13:50:40;31.10;;;14.30;;
57309;SDS011;43153;50.984;18.204;2023-11-21T13:53:18;26.80;;;12.70;;
57309;SDS011;43153;50.984;18.204;2023-11-21T13:55:49;28.20;;;12.30;;
57309;SDS011;43153;50.984;18.204;2023-11-21T13:58:17;26.50;;;14.00;;
57309;SDS011;43153;50.984;18.204;2023-11-21T14:00:49;31.60;;;16.10;;
57309;SDS011;43153;50.984;18.204;2023-11-21T14:03:22;29.30;;;15.20;;
57309;SDS011;43153;50.984;18.204;2023-11-21T14:06:05;34.40;;;16.90;;
57309;SDS011;43153;50.984;18.204;2023-11-21T14:08:41;35.70;;;18.00;;
57309;SDS011;43153;50.984;18.204;2023-11-21T14:11:16;38.00;;;17.90;;
57309;SDS011;43153;50.984;18.204;2023-11-21T14:13:47;49.30;;;20.20;;
57309;SDS011;43153;50.984;18.204;2023-11-21T14:16:24;40.40;;;19.30;;
57309;SDS011;43153;50.984;18.204;2023-11-21T14:18:52;47.50;;;23.90;;
57309;SDS011;43153;50.984;18.204;2023-11-21T14:23:49;43.20;;;18.90;;
57309;SDS011;43153;50.984;18.204;2023-11-21T14:26:15;44.30;;;19.60;;
57309;SDS011;43153;50.984;18.204;2023-11-21T14:28:46;51.00;;;20.30;;
57309;SDS011;43153;50.984;18.204;2023-11-21T14:31:14;39.40;;;17.70;;
57309;SDS011;43153;50.984;18.204;2023-11-21T14:33:46;41.30;;;19.90;;
57309;SDS011;43153;50.984;18.204;2023-11-21T14:36:16;47.10;;;22.70;;
57309;SDS011;43153;50.984;18.204;2023-11-21T14:38:44;47.10;;;21.80;;
57309;SDS011;43153;50.984;18.204;2023-11-21T14:41:10;58.20;;;21.60;;
57309;SDS011;43153;50.984;18.204;2023-11-21T14:43:36;53.60;;;23.20;;
57309;SDS011;43153;50.984;18.204;2023-11-21T14:46:05;43.70;;;22.20;;
57309;SDS011;43153;50.984;18.204;2023-11-21T14:48:38;37.70;;;21.00;;
57309;SDS011;43153;50.984;18.204;2023-11-21T14:51:18;48.90;;;20.80;;
57309;SDS011;43153;50.984;18.204;2023-11-21T14:53:46;55.30;;;23.00;;
57309;SDS011;43153;50.984;18.204;2023-11-21T14:56:28;39.50;;;18.10;;
57309;SDS011;43153;50.984;18.204;2023-11-21T14:59:00;45.00;;;19.20;;
57309;SDS011;43153;50.984;18.204;2023-11-21T15:04:10;43.20;;;18.00;;
57309;SDS011;43153;50.984;18.204;2023-11-21T15:06:55;53.60;;;21.00;;
57309;SDS011;43153;50.984;18.204;2023-11-21T15:09:23;49.10;;;19.70;;
57309;SDS011;43153;50.984;18.204;2023-11-21T15:12:00;49.60;;;20.30;;
57309;SDS011;43153;50.984;18.204;2023-11-21T15:17:09;48.60;;;21.50;;
57309;SDS011;43153;50.984;18.204;2023-11-21T15:19:35;59.90;;;24.90;;
57309;SDS011;43153;50.984;18.204;2023-11-21T15:22:02;48.00;;;21.30;;
57309;SDS011;43153;50.984;18.204;2023-11-21T15:24:31;54.00;;;23.00;;
57309;SDS011;43153;50.984;18.204;2023-11-21T15:27:05;57.00;;;22.10;;
57309;SDS011;43153;50.984;18.204;2023-11-21T15:29:33;53.50;;;24.60;;
57309;SDS011;43153;50.984;18.204;2023-11-21T15:31:59;68.60;;;28.10;;
57309;SDS011;43153;50.984;18.204;2023-11-21T15:34:27;65.60;;;28.80;;